createdAt,value
2023-01-23T00:01:39.763Z,0.47
2023-01-23T00:04:08.384Z,0.44
2023-01-23T00:06:36.458Z,0.42
2023-01-23T00:09:04.745Z,0.43
2023-01-23T00:11:33.513Z,0.39
2023-01-23T00:14:02.558Z,0.37
2023-01-23T00:16:32.976Z,0.36
2023-01-23T00:19:00.876Z,0.35
2023-01-23T00:21:30.664Z,0.33
2023-01-23T00:24:01.716Z,0.32
2023-01-23T00:26:32.949Z,0.29
2023-01-23T00:29:01.835Z,0.28
2023-01-23T00:31:33.284Z,0.27
2023-01-23T00:34:04.704Z,0.31
2023-01-23T00:36:36.241Z,0.34
2023-01-23T00:39:07.879Z,0.35
2023-01-23T00:41:36.502Z,0.37
2023-01-23T00:44:05.307Z,0.35
2023-01-23T00:46:35.000Z,0.35
2023-01-23T00:49:03.821Z,0.37
2023-01-23T00:51:32.322Z,0.34
2023-01-23T00:54:00.838Z,0.30
2023-01-23T00:56:29.618Z,0.33
2023-01-23T00:58:57.594Z,0.32
2023-01-23T01:01:26.204Z,0.33
2023-01-23T01:03:54.382Z,0.30
2023-01-23T01:06:22.473Z,0.27
2023-01-23T01:08:50.973Z,0.27
2023-01-23T01:11:18.977Z,0.25
2023-01-23T01:13:46.901Z,0.26
2023-01-23T01:16:15.033Z,0.29
2023-01-23T01:18:44.636Z,0.30
2023-01-23T01:21:14.791Z,0.29
2023-01-23T01:23:43.196Z,0.29
2023-01-23T01:26:11.523Z,0.28
2023-01-23T01:28:42.152Z,0.27
2023-01-23T01:31:15.853Z,0.29
2023-01-23T01:33:44.660Z,0.25
2023-01-23T01:36:19.777Z,0.21
2023-01-23T01:38:48.182Z,0.17
2023-01-23T01:41:17.597Z,0.17
2023-01-23T01:43:45.938Z,0.15
2023-01-23T01:46:22.180Z,0.19
2023-01-23T01:49:11.458Z,0.22
2023-01-23T01:51:43.843Z,0.21
2023-01-23T01:54:19.834Z,0.22
2023-01-23T01:57:16.520Z,0.21
2023-01-23T01:59:56.932Z,0.23
2023-01-23T02:02:27.936Z,0.23
2023-01-23T02:05:26.610Z,0.21
2023-01-23T02:08:03.706Z,0.23
2023-01-23T02:10:36.408Z,0.24
2023-01-23T02:13:33.965Z,0.28
2023-01-23T02:16:05.219Z,0.30
2023-01-23T02:18:35.283Z,0.31
2023-01-23T02:21:08.407Z,0.30
2023-01-23T02:24:01.737Z,0.28
2023-01-23T02:26:36.796Z,0.25
2023-01-23T02:29:06.329Z,0.25
2023-01-23T02:31:43.040Z,0.23
2023-01-23T02:34:13.622Z,0.19
2023-01-23T02:36:46.250Z,0.17
2023-01-23T02:39:16.957Z,0.11
2023-01-23T02:41:49.731Z,0.10
2023-01-23T02:44:18.711Z,0.11
2023-01-23T02:46:50.569Z,0.13
2023-01-23T02:49:18.943Z,0.12
2023-01-23T02:51:46.878Z,0.10
2023-01-23T02:54:15.790Z,0.07
2023-01-23T02:56:43.833Z,0.07
2023-01-23T02:59:31.040Z,0.06
2023-01-23T03:01:59.257Z,0.05
2023-01-23T03:04:27.136Z,0.06
2023-01-23T03:06:55.074Z,0.05
2023-01-23T03:09:23.285Z,0.01
2023-01-23T03:11:52.287Z,0.01
2023-01-23T03:14:23.070Z,0.00
2023-01-23T03:16:53.925Z,0.01
2023-01-23T03:19:25.010Z,-0.01
2023-01-23T03:21:54.843Z,0.01
2023-01-23T03:24:23.019Z,0.01
2023-01-23T03:26:52.125Z,0.00
2023-01-23T03:29:43.849Z,-0.02
2023-01-23T03:32:13.845Z,0.02
2023-01-23T03:34:43.099Z,0.04
2023-01-23T03:37:12.531Z,0.06
2023-01-23T03:40:16.668Z,0.08
2023-01-23T03:42:44.751Z,0.13
2023-01-23T03:45:14.754Z,0.15
2023-01-23T03:47:43.093Z,0.18
2023-01-23T03:50:11.916Z,0.20
2023-01-23T03:52:40.462Z,0.24
2023-01-23T03:55:08.914Z,0.22
2023-01-23T03:57:37.722Z,0.21
2023-01-23T04:00:13.895Z,0.18
2023-01-23T04:02:41.753Z,0.16
2023-01-23T04:05:11.972Z,0.18
2023-01-23T04:07:39.961Z,0.19
2023-01-23T04:10:09.163Z,0.18
2023-01-23T04:12:38.114Z,0.18
2023-01-23T04:15:07.105Z,0.20
2023-01-23T04:17:35.046Z,0.23
2023-01-23T04:20:05.020Z,0.25
2023-01-23T04:22:33.299Z,0.26
2023-01-23T04:25:01.245Z,0.26
2023-01-23T04:27:31.716Z,0.23
2023-01-23T04:30:00.141Z,0.20
2023-01-23T04:32:28.935Z,0.18
2023-01-23T04:34:58.130Z,0.19
2023-01-23T04:37:26.509Z,0.15
2023-01-23T04:39:54.700Z,0.11
2023-01-23T04:42:23.394Z,0.09
2023-01-23T04:45:08.554Z,0.08
2023-01-23T04:47:54.986Z,0.03
2023-01-23T04:50:23.974Z,-0.02
2023-01-23T04:52:53.070Z,-0.05
2023-01-23T04:55:20.995Z,-0.08
2023-01-23T04:57:49.359Z,-0.10
2023-01-23T05:00:22.861Z,-0.09
2023-01-23T05:02:51.235Z,-0.06
2023-01-23T05:05:21.356Z,-0.07
2023-01-23T05:07:52.164Z,-0.08
2023-01-23T05:10:20.851Z,-0.07
2023-01-23T05:12:49.756Z,-0.04
2023-01-23T05:15:18.565Z,-0.02
2023-01-23T05:17:48.703Z,0.01
2023-01-23T05:20:17.840Z,0.02
2023-01-23T05:22:52.789Z,0.03
2023-01-23T05:25:26.913Z,-0.00
2023-01-23T05:27:56.086Z,-0.01
2023-01-23T05:30:24.498Z,0.01
2023-01-23T05:32:55.884Z,0.00
2023-01-23T05:35:23.765Z,-0.03
2023-01-23T05:37:53.075Z,-0.02
2023-01-23T05:40:24.140Z,-0.01
2023-01-23T05:43:24.092Z,-0.01
2023-01-23T05:46:06.500Z,-0.01
2023-01-23T05:48:50.680Z,-0.01
2023-01-23T05:51:20.853Z,-0.01
2023-01-23T05:53:49.540Z,0.03
2023-01-23T05:56:18.312Z,0.02
2023-01-23T05:59:05.551Z,0.03
2023-01-23T06:01:48.429Z,0.03
2023-01-23T06:04:55.854Z,-0.01
2023-01-23T06:07:33.657Z,0.02
2023-01-23T06:10:09.769Z,0.02
2023-01-23T06:12:38.157Z,0.02
2023-01-23T06:15:06.568Z,0.04
2023-01-23T06:17:34.937Z,0.02
2023-01-23T06:20:04.746Z,-0.01
2023-01-23T06:22:34.082Z,-0.01
2023-01-23T06:25:05.115Z,-0.01
2023-01-23T06:27:33.216Z,-0.00
2023-01-23T06:30:04.787Z,-0.03
2023-01-23T06:32:35.018Z,-0.02
2023-01-23T06:35:04.960Z,0.00
2023-01-23T06:37:36.224Z,-0.03
2023-01-23T06:40:05.037Z,-0.07
2023-01-23T06:42:33.796Z,-0.04
2023-01-23T06:45:02.180Z,-0.03
2023-01-23T06:47:31.407Z,-0.04
2023-01-23T06:50:03.105Z,-0.04
2023-01-23T06:52:32.400Z,-0.07
2023-01-23T06:55:00.402Z,-0.05
2023-01-23T06:57:28.318Z,-0.04
2023-01-23T06:59:56.461Z,0.00
2023-01-23T07:02:25.549Z,-0.01
2023-01-23T07:04:54.235Z,-0.03
2023-01-23T07:07:22.271Z,-0.04
2023-01-23T07:09:50.709Z,-0.04
2023-01-23T07:12:20.945Z,-0.01
2023-01-23T07:14:48.745Z,-0.00
2023-01-23T07:17:20.400Z,0.00
2023-01-23T07:19:48.383Z,-0.00
2023-01-23T07:22:18.999Z,-0.02
2023-01-23T07:24:47.901Z,0.03
2023-01-23T07:27:15.962Z,-0.01
2023-01-23T07:29:43.870Z,0.03
2023-01-23T07:32:12.123Z,0.03
2023-01-23T07:34:40.291Z,0.03
2023-01-23T07:37:08.257Z,0.04
2023-01-23T07:39:36.168Z,0.04
2023-01-23T07:42:04.137Z,0.06
2023-01-23T07:44:32.002Z,0.12
2023-01-23T07:46:59.934Z,0.20
2023-01-23T07:49:27.960Z,0.23
2023-01-23T07:51:55.893Z,0.25
2023-01-23T07:54:23.818Z,0.26
2023-01-23T07:56:51.806Z,0.27
2023-01-23T07:59:19.833Z,0.27
2023-01-23T08:01:49.312Z,0.26
2023-01-23T08:04:17.261Z,0.28
2023-01-23T08:06:46.047Z,0.27
2023-01-23T08:09:13.994Z,0.29
2023-01-23T08:11:41.974Z,0.34
2023-01-23T08:14:11.777Z,0.39
2023-01-23T08:16:39.726Z,0.44
2023-01-23T08:19:08.540Z,0.47
2023-01-23T08:21:36.538Z,0.51
2023-01-23T08:24:05.051Z,0.52
2023-01-23T08:26:33.560Z,0.56
2023-01-23T08:29:01.745Z,0.60
2023-01-23T08:31:30.405Z,0.61
2023-01-23T08:33:58.713Z,0.68
2023-01-23T08:36:28.042Z,0.72
2023-01-23T08:38:56.215Z,0.75
2023-01-23T08:41:24.363Z,0.78
2023-01-23T08:43:52.519Z,0.82
2023-01-23T08:46:20.874Z,0.84
2023-01-23T08:48:49.000Z,0.85
2023-01-23T08:51:17.283Z,0.89
2023-01-23T08:53:45.594Z,0.89
2023-01-23T08:56:21.808Z,0.88
2023-01-23T08:58:50.740Z,0.91
2023-01-23T09:01:22.099Z,0.94
2023-01-23T09:03:50.947Z,1.02
2023-01-23T09:06:21.327Z,1.07
2023-01-23T09:08:50.022Z,1.09
2023-01-23T09:11:18.556Z,1.09
2023-01-23T09:13:47.571Z,1.14
2023-01-23T09:16:16.194Z,1.16
2023-01-23T09:18:44.471Z,1.13
2023-01-23T09:21:16.461Z,1.13
2023-01-23T09:23:46.038Z,1.14
2023-01-23T09:26:15.352Z,1.16
2023-01-23T09:28:43.942Z,1.16
2023-01-23T09:31:13.877Z,1.22
2023-01-23T09:33:42.581Z,1.22
2023-01-23T09:36:10.883Z,1.21
2023-01-23T09:38:39.085Z,1.20
2023-01-23T09:41:15.333Z,1.18
2023-01-23T09:44:25.555Z,1.19
2023-01-23T09:47:02.411Z,1.25
2023-01-23T09:49:49.364Z,1.32
2023-01-23T09:52:24.158Z,1.41
2023-01-23T09:55:15.161Z,1.46
2023-01-23T09:57:53.116Z,1.49
2023-01-23T10:00:30.807Z,1.55
2023-01-23T10:03:01.708Z,1.55
2023-01-23T10:05:52.291Z,1.59
2023-01-23T10:08:48.282Z,1.64
2023-01-23T10:11:45.465Z,1.72
2023-01-23T10:14:44.582Z,1.74
2023-01-23T10:17:34.168Z,1.76
2023-01-23T10:20:12.847Z,1.79
2023-01-23T10:22:58.827Z,1.82
2023-01-23T10:25:33.149Z,1.77
2023-01-23T10:28:14.911Z,1.81
2023-01-23T10:30:49.727Z,1.73
2023-01-23T10:33:19.060Z,1.74
2023-01-23T10:35:54.256Z,1.68
2023-01-23T10:38:39.065Z,1.72
2023-01-23T10:41:14.937Z,1.73
2023-01-23T10:43:45.501Z,1.81
2023-01-23T10:46:38.216Z,1.86
2023-01-23T10:49:07.377Z,1.91
2023-01-23T10:51:38.175Z,1.95
2023-01-23T10:54:32.288Z,1.93
2023-01-23T10:57:22.722Z,1.97
2023-01-23T11:00:04.384Z,2.04
2023-01-23T11:02:35.322Z,2.11
2023-01-23T11:05:50.311Z,2.10
2023-01-23T11:08:25.525Z,2.04
2023-01-23T11:10:54.514Z,2.00
2023-01-23T11:13:30.288Z,2.00
2023-01-23T11:15:58.313Z,1.93
2023-01-23T11:18:36.183Z,1.88
2023-01-23T11:21:04.302Z,1.86
2023-01-23T11:23:34.015Z,1.91
2023-01-23T11:26:03.339Z,1.97
2023-01-23T11:28:47.469Z,1.98
2023-01-23T11:31:27.414Z,2.01
2023-01-23T11:34:05.334Z,2.00
2023-01-23T11:36:45.580Z,2.01
2023-01-23T11:39:42.610Z,2.05
2023-01-23T11:42:12.447Z,2.11
2023-01-23T11:44:46.393Z,2.15
2023-01-23T11:47:37.017Z,2.18
2023-01-23T11:50:11.851Z,2.15
2023-01-23T11:52:39.736Z,2.17
2023-01-23T11:55:23.470Z,2.21
2023-01-23T11:58:14.672Z,2.20
2023-01-23T12:01:05.274Z,2.22
2023-01-23T12:04:01.811Z,2.21
2023-01-23T12:06:42.523Z,2.14
2023-01-23T12:09:16.894Z,2.14
2023-01-23T12:12:02.679Z,2.11
2023-01-23T12:15:01.608Z,2.10
2023-01-23T12:17:29.558Z,2.01
2023-01-23T12:20:06.525Z,2.01
2023-01-23T12:23:13.671Z,1.94
2023-01-23T12:25:46.967Z,2.05
2023-01-23T12:28:40.413Z,2.11
2023-01-23T12:31:29.878Z,2.13
2023-01-23T12:34:42.689Z,2.16
2023-01-23T12:37:30.701Z,2.19
2023-01-23T12:40:23.279Z,2.21
2023-01-23T12:43:04.797Z,2.17
2023-01-23T12:45:33.923Z,2.16
2023-01-23T12:48:17.443Z,2.13
2023-01-23T12:51:10.596Z,2.14
2023-01-23T12:53:41.868Z,2.13
2023-01-23T12:56:23.248Z,2.02
2023-01-23T12:59:22.021Z,2.00
2023-01-23T13:02:03.840Z,2.01
2023-01-23T13:05:04.867Z,1.97
2023-01-23T13:07:41.679Z,1.94
2023-01-23T13:10:52.885Z,1.91
2023-01-23T13:13:21.785Z,1.92
2023-01-23T13:16:09.368Z,1.98
2023-01-23T13:18:56.597Z,1.99
2023-01-23T13:21:44.191Z,2.00
2023-01-23T13:24:41.159Z,1.99
2023-01-23T13:27:35.483Z,1.95
2023-01-23T13:30:26.431Z,1.94
2023-01-23T13:33:05.899Z,1.94
2023-01-23T13:35:40.452Z,1.95
2023-01-23T13:38:32.177Z,1.96
2023-01-23T13:41:11.478Z,1.95
2023-01-23T13:43:51.345Z,1.96
2023-01-23T14:24:03.779Z,1.50
2023-01-23T14:26:34.561Z,1.51
2023-01-23T14:29:18.924Z,1.45
2023-01-23T14:31:47.603Z,1.34
2023-01-23T14:34:18.634Z,1.40
2023-01-23T14:37:05.637Z,1.40
2023-01-23T14:39:36.064Z,1.40
2023-01-23T14:42:07.884Z,1.42
2023-01-23T14:44:43.831Z,1.43
2023-01-23T14:47:25.358Z,1.41
2023-01-23T14:49:54.790Z,1.37
2023-01-23T14:52:30.911Z,1.33
2023-01-23T14:55:05.793Z,1.31
2023-01-23T14:57:37.593Z,1.29
2023-01-23T15:00:06.002Z,1.32
2023-01-23T15:02:35.937Z,1.31
2023-01-23T15:05:13.002Z,1.21
2023-01-23T15:07:53.160Z,1.14
2023-01-23T15:10:25.476Z,1.11
2023-01-23T15:13:11.761Z,1.08
2023-01-23T15:15:45.941Z,1.05
2023-01-23T15:18:35.354Z,1.05
2023-01-23T15:21:06.541Z,1.03
2023-01-23T15:23:37.464Z,0.98
2023-01-23T15:26:14.566Z,0.95
2023-01-23T15:29:16.445Z,0.93
2023-01-23T15:31:51.872Z,0.87
2023-01-23T15:34:24.730Z,0.87
2023-01-23T15:36:57.757Z,0.77
2023-01-23T15:39:29.609Z,0.80
2023-01-23T15:42:00.549Z,0.78
2023-01-23T15:44:30.830Z,0.78
2023-01-23T15:47:04.369Z,0.81
2023-01-23T15:49:37.907Z,0.82
2023-01-23T15:52:25.043Z,0.84
2023-01-23T15:54:56.920Z,0.85
2023-01-23T15:57:24.950Z,0.86
2023-01-23T15:59:52.969Z,0.85
2023-01-23T16:02:32.984Z,0.86
2023-01-23T16:05:01.954Z,0.86
2023-01-23T16:07:35.169Z,0.85
2023-01-23T16:10:08.065Z,0.81
2023-01-23T16:12:38.868Z,0.80
2023-01-23T16:15:15.743Z,0.79
2023-01-23T16:17:44.179Z,0.75
2023-01-23T16:20:16.731Z,0.76
2023-01-23T16:22:46.558Z,0.74
2023-01-23T16:25:44.588Z,0.70
2023-01-23T16:28:15.989Z,0.72
2023-01-23T16:30:44.602Z,0.71
2023-01-23T16:33:13.043Z,0.75
2023-01-23T16:35:42.018Z,0.76
2023-01-23T16:38:23.674Z,0.73
2023-01-23T16:40:53.457Z,0.75
2023-01-23T16:43:23.030Z,0.75
2023-01-23T16:45:54.360Z,0.75
2023-01-23T16:48:27.953Z,0.75
2023-01-23T16:51:21.901Z,0.73
2023-01-23T16:53:53.768Z,0.72
2023-01-23T16:56:43.645Z,0.72
2023-01-23T16:59:21.250Z,0.69
2023-01-23T17:01:51.756Z,0.68
2023-01-23T17:04:21.643Z,0.68
2023-01-23T17:06:50.172Z,0.72
2023-01-23T17:09:18.104Z,0.72
2023-01-23T17:11:54.630Z,0.74
2023-01-23T17:14:30.288Z,0.69
2023-01-23T17:17:07.744Z,0.74
2023-01-23T17:19:40.371Z,0.75
2023-01-23T17:22:32.434Z,0.75
2023-01-23T17:25:00.446Z,0.75
2023-01-23T17:27:28.801Z,0.77
2023-01-23T17:29:56.744Z,0.79
2023-01-23T17:32:30.443Z,0.75
2023-01-23T17:35:02.739Z,0.74
2023-01-23T17:37:30.957Z,0.73
2023-01-23T17:39:58.848Z,0.73
2023-01-23T17:42:26.879Z,0.74
2023-01-23T17:44:54.884Z,0.75
2023-01-23T17:47:22.856Z,0.77
2023-01-23T17:49:54.482Z,0.77
2023-01-23T17:52:24.983Z,0.78
2023-01-23T17:54:54.594Z,0.80
2023-01-23T17:57:22.697Z,0.81
2023-01-23T17:59:50.615Z,0.80
2023-01-23T18:02:28.372Z,0.78
2023-01-23T18:04:56.896Z,0.78
2023-01-23T18:07:24.728Z,0.78
2023-01-23T18:09:55.473Z,0.78
2023-01-23T18:12:37.848Z,0.76
2023-01-23T18:15:59.838Z,0.74
2023-01-23T18:18:32.798Z,0.67
2023-01-23T18:21:02.365Z,0.68
2023-01-23T18:23:32.280Z,0.66
2023-01-23T18:26:37.099Z,0.65
2023-01-23T18:29:23.973Z,0.61
2023-01-23T18:32:04.343Z,0.60
2023-01-23T18:34:54.262Z,0.61
2023-01-23T18:37:43.601Z,0.60
2023-01-23T18:40:29.687Z,0.59
2023-01-23T18:43:18.666Z,0.59
2023-01-23T18:45:47.021Z,0.60
2023-01-23T18:48:25.207Z,0.59
2023-01-23T18:51:34.420Z,0.52
2023-01-23T18:54:09.086Z,0.50
2023-01-23T18:56:56.281Z,0.52
2023-01-23T18:59:49.643Z,0.51
2023-01-23T19:02:40.169Z,0.51
2023-01-23T19:05:10.198Z,0.53
2023-01-23T19:07:38.762Z,0.53
2023-01-23T19:10:12.541Z,0.52
2023-01-23T19:12:52.363Z,0.55
2023-01-23T19:15:32.377Z,0.57
2023-01-23T19:18:31.458Z,0.56
2023-01-23T19:21:29.052Z,0.50
2023-01-23T19:24:10.050Z,0.48
2023-01-23T19:26:42.068Z,0.51
2023-01-23T19:29:21.394Z,0.52
2023-01-23T19:32:07.095Z,0.51
2023-01-23T19:34:35.607Z,0.50
2023-01-23T19:37:04.253Z,0.50
2023-01-23T19:39:32.600Z,0.49
2023-01-23T19:42:00.765Z,0.53
2023-01-23T19:44:31.066Z,0.53
2023-01-23T19:46:59.093Z,0.53
2023-01-23T19:49:27.263Z,0.58
2023-01-23T19:51:55.192Z,0.60
2023-01-23T19:54:24.321Z,0.58
2023-01-23T19:56:52.590Z,0.56
2023-01-23T19:59:21.218Z,0.55
2023-01-23T20:01:53.542Z,0.52
2023-01-23T20:04:23.834Z,0.50
2023-01-23T20:06:52.521Z,0.51
2023-01-23T20:09:20.979Z,0.52
2023-01-23T20:11:49.437Z,0.48
2023-01-23T20:14:17.375Z,0.47
2023-01-23T20:16:45.382Z,0.52
2023-01-23T20:19:15.078Z,0.53
2023-01-23T20:21:43.535Z,0.53
2023-01-23T20:24:12.215Z,0.56
2023-01-23T20:26:40.971Z,0.56
2023-01-23T20:29:11.250Z,0.56
2023-01-23T20:31:39.350Z,0.54
2023-01-23T20:34:07.442Z,0.55
2023-01-23T20:36:35.234Z,0.58
2023-01-23T20:39:05.303Z,0.57
2023-01-23T20:41:33.399Z,0.58
2023-01-23T20:44:01.184Z,0.58
2023-01-23T20:46:29.221Z,0.55
2023-01-23T20:48:57.331Z,0.54
2023-01-23T20:51:26.484Z,0.53
2023-01-23T20:53:54.403Z,0.54
2023-01-23T20:56:27.882Z,0.56
2023-01-23T20:59:15.685Z,0.56
2023-01-23T21:02:03.387Z,0.55
2023-01-23T21:04:34.157Z,0.55
2023-01-23T21:07:03.071Z,0.52
2023-01-23T21:09:31.014Z,0.53
2023-01-23T21:11:59.360Z,0.54
2023-01-23T21:14:27.276Z,0.52
2023-01-23T21:16:55.281Z,0.53
2023-01-23T21:19:23.187Z,0.55
2023-01-23T21:21:51.278Z,0.54
2023-01-23T21:24:19.356Z,0.53
2023-01-23T21:26:47.278Z,0.53
2023-01-23T21:29:15.426Z,0.54
2023-01-23T21:31:43.594Z,0.57
2023-01-23T21:34:14.206Z,0.60
2023-01-23T21:36:43.173Z,0.62
2023-01-23T21:39:14.105Z,0.63
2023-01-23T21:41:42.196Z,0.63
2023-01-23T21:44:11.178Z,0.62
2023-01-23T21:46:39.441Z,0.60
2023-01-23T21:49:07.554Z,0.59
2023-01-23T21:51:35.601Z,0.60
2023-01-23T21:54:03.630Z,0.60
2023-01-23T21:56:31.516Z,0.59
2023-01-23T21:58:59.502Z,0.58
2023-01-23T22:01:42.094Z,0.54
2023-01-23T22:04:14.411Z,0.55
2023-01-23T22:06:44.496Z,0.56
2023-01-23T22:09:17.191Z,0.53
2023-01-23T22:11:48.503Z,0.50
2023-01-23T22:14:18.097Z,0.51
2023-01-23T22:16:49.530Z,0.48
2023-01-23T22:19:24.196Z,0.49
2023-01-23T22:21:54.921Z,0.50
2023-01-23T22:24:23.522Z,0.51
2023-01-23T22:26:51.916Z,0.50
2023-01-23T22:29:19.880Z,0.50
2023-01-23T22:31:48.058Z,0.48
2023-01-23T22:34:16.193Z,0.49
2023-01-23T22:36:44.528Z,0.50
2023-01-23T22:39:18.054Z,0.51
2023-01-23T22:41:47.070Z,0.50
2023-01-23T22:44:14.853Z,0.50
2023-01-23T22:46:43.105Z,0.47
2023-01-23T22:49:11.225Z,0.45
2023-01-23T22:51:39.459Z,0.42
2023-01-23T22:54:07.452Z,0.41
2023-01-23T22:56:35.352Z,0.38
2023-01-23T22:59:03.613Z,0.41
2023-01-23T23:01:31.921Z,0.44
2023-01-23T23:04:00.271Z,0.44
2023-01-23T23:06:29.012Z,0.44
2023-01-23T23:08:56.976Z,0.47
2023-01-23T23:11:27.430Z,0.50
2023-01-23T23:13:56.309Z,0.49
2023-01-23T23:16:27.109Z,0.50
2023-01-23T23:18:57.052Z,0.49
2023-01-23T23:21:30.291Z,0.49
2023-01-23T23:24:00.197Z,0.46
2023-01-23T23:26:31.341Z,0.43
2023-01-23T23:29:00.939Z,0.46
2023-01-23T23:31:29.091Z,0.44
2023-01-23T23:33:58.111Z,0.42
2023-01-23T23:36:26.375Z,0.43
2023-01-23T23:38:54.527Z,0.45
2023-01-23T23:41:22.566Z,0.46
2023-01-23T23:43:50.724Z,0.47
2023-01-23T23:46:18.828Z,0.49
2023-01-23T23:48:48.211Z,0.49
2023-01-23T23:51:18.891Z,0.48
2023-01-23T23:53:46.919Z,0.49
2023-01-23T23:56:41.152Z,0.49
2023-01-23T23:59:15.054Z,0.48
